Time;durP1;ratioP1;P1;durP2;ratioP2;P2;SDS_P1;SDS_P2;PMS_P1;PMS_P2;Temp;Humidity;BMP_temperature;BMP_pressure;BME280_temperature;BME280_humidity;BME280_pressure;Samples;Min_cycle;Max_cycle;Signal;HPM_P1;HPM_P2
2022/03/06 00:01:50;;;;;;;34.33;13.33;;;;;;;;;;4996179;28;20467;-77
2022/03/06 00:04:17;;;;;;;38.27;13.70;;;;;;;;;;4996467;28;20523;-77
2022/03/06 00:06:46;;;;;;;38.80;14.07;;;;;;;;;;5000112;28;20458;-77
2022/03/06 00:09:13;;;;;;;42.57;14.20;;;;;;;;;;4994656;28;20459;-77
2022/03/06 00:11:41;;;;;;;37.13;13.80;;;;;;;;;;4997884;28;20475;-77
2022/03/06 00:14:08;;;;;;;40.83;14.17;;;;;;;;;;5000909;28;20490;-77
2022/03/06 00:16:35;;;;;;;34.43;13.40;;;;;;;;;;5001955;28;20649;-77
2022/03/06 00:19:02;;;;;;;38.37;13.70;;;;;;;;;;5002489;28;20477;-76
2022/03/06 00:21:29;;;;;;;41.00;14.13;;;;;;;;;;5005926;28;20550;-76
2022/03/06 00:23:58;;;;;;;37.13;13.43;;;;;;;;;;5003168;28;20583;-76
2022/03/06 00:26:25;;;;;;;37.90;14.37;;;;;;;;;;5001367;28;20459;-77
2022/03/06 00:28:52;;;;;;;45.60;13.50;;;;;;;;;;4998806;28;21499;-77
2022/03/06 00:31:19;;;;;;;36.67;13.37;;;;;;;;;;5005518;28;20538;-77
2022/03/06 00:33:47;;;;;;;36.93;12.67;;;;;;;;;;4996526;28;20578;-77
2022/03/06 00:36:14;;;;;;;35.17;12.50;;;;;;;;;;5003942;28;20541;-77
2022/03/06 00:38:41;;;;;;;39.20;14.07;;;;;;;;;;5008358;28;21056;-78
2022/03/06 00:41:10;;;;;;;38.00;13.60;;;;;;;;;;5000368;28;20957;-76
2022/03/06 00:43:37;;;;;;;37.33;13.30;;;;;;;;;;5002796;28;20486;-78
2022/03/06 00:46:04;;;;;;;38.60;14.57;;;;;;;;;;5007566;28;20843;-79
2022/03/06 00:48:31;;;;;;;43.77;14.27;;;;;;;;;;5012043;28;20486;-78
2022/03/06 00:50:58;;;;;;;42.07;14.63;;;;;;;;;;5009551;28;20842;-77
2022/03/06 00:53:25;;;;;;;42.40;13.77;;;;;;;;;;5009515;28;20494;-79
2022/03/06 00:55:53;;;;;;;41.83;14.23;;;;;;;;;;5011608;28;20518;-77
2022/03/06 00:58:21;;;;;;;39.93;14.20;;;;;;;;;;5004113;28;20929;-76
2022/03/06 01:00:49;;;;;;;39.43;13.87;;;;;;;;;;5007481;28;20494;-77
2022/03/06 01:03:18;;;;;;;39.33;13.53;;;;;;;;;;5009906;28;21065;-77
2022/03/06 01:05:46;;;;;;;37.30;13.23;;;;;;;;;;5007811;28;20459;-79
2022/03/06 01:08:14;;;;;;;38.20;13.63;;;;;;;;;;5010543;28;20509;-76
2022/03/06 01:10:42;;;;;;;37.63;13.83;;;;;;;;;;5008400;28;20462;-78
2022/03/06 01:13:10;;;;;;;38.03;13.63;;;;;;;;;;5008013;28;20483;-76
2022/03/06 01:15:38;;;;;;;37.73;14.13;;;;;;;;;;5009070;28;20479;-78
2022/03/06 01:18:06;;;;;;;38.73;13.37;;;;;;;;;;5010019;28;20447;-78
2022/03/06 01:20:34;;;;;;;37.63;13.37;;;;;;;;;;5005432;28;20962;-76
2022/03/06 01:23:01;;;;;;;43.13;14.07;;;;;;;;;;5010064;28;20483;-78
2022/03/06 01:25:28;;;;;;;48.80;14.37;;;;;;;;;;4999163;28;20553;-78
2022/03/06 01:27:56;;;;;;;40.13;14.07;;;;;;;;;;5006177;28;20466;-77
2022/03/06 01:30:25;;;;;;;41.13;14.07;;;;;;;;;;5007947;28;21057;-79
2022/03/06 01:32:54;;;;;;;49.23;15.07;;;;;;;;;;5006151;28;20832;-76
2022/03/06 01:35:21;;;;;;;38.23;12.93;;;;;;;;;;5007038;28;21040;-78
2022/03/06 01:37:49;;;;;;;33.90;11.97;;;;;;;;;;5009917;28;20526;-76
2022/03/06 01:40:18;;;;;;;35.80;12.97;;;;;;;;;;5005413;28;20458;-77
2022/03/06 01:42:46;;;;;;;37.77;13.03;;;;;;;;;;5008416;28;20478;-78
2022/03/06 01:45:14;;;;;;;36.43;13.17;;;;;;;;;;5006568;28;20864;-78
2022/03/06 01:47:42;;;;;;;40.37;13.63;;;;;;;;;;5005516;28;20550;-78
2022/03/06 01:50:14;;;;;;;37.33;13.27;;;;;;;;;;5005985;28;20470;-78
2022/03/06 01:52:41;;;;;;;43.60;13.53;;;;;;;;;;5009498;28;20563;-79
2022/03/06 01:55:09;;;;;;;32.33;13.00;;;;;;;;;;5005085;28;20543;-77
2022/03/06 01:57:36;;;;;;;37.23;13.90;;;;;;;;;;5009041;28;20466;-78
2022/03/06 02:00:06;;;;;;;40.53;12.37;;;;;;;;;;5004839;28;20484;-78
2022/03/06 02:02:34;;;;;;;36.17;12.90;;;;;;;;;;5003273;28;20491;-78
2022/03/06 02:05:01;;;;;;;40.43;13.17;;;;;;;;;;5006120;28;20569;-77
2022/03/06 02:07:30;;;;;;;33.97;12.50;;;;;;;;;;5009520;28;20517;-77
2022/03/06 02:09:58;;;;;;;45.30;13.47;;;;;;;;;;5009972;28;20506;-76
2022/03/06 02:12:26;;;;;;;45.50;14.20;;;;;;;;;;5004805;28;21017;-77
2022/03/06 02:14:53;;;;;;;41.70;13.63;;;;;;;;;;5005937;28;20546;-77
2022/03/06 02:17:21;;;;;;;35.30;13.07;;;;;;;;;;5002982;28;20541;-78
2022/03/06 02:19:55;;;;;;;42.23;13.47;;;;;;;;;;5002205;28;20467;-77
2022/03/06 02:22:24;;;;;;;40.13;13.50;;;;;;;;;;5002768;28;20519;-78
2022/03/06 02:24:51;;;;;;;36.33;13.77;;;;;;;;;;5006463;28;20448;-78
2022/03/06 02:27:18;;;;;;;38.60;12.63;;;;;;;;;;5004583;28;20578;-77
2022/03/06 02:29:46;;;;;;;38.87;13.53;;;;;;;;;;5003281;28;20953;-78
2022/03/06 02:32:14;;;;;;;38.70;13.50;;;;;;;;;;5003979;28;20492;-78
2022/03/06 02:34:42;;;;;;;37.80;12.47;;;;;;;;;;5006823;28;20715;-77
2022/03/06 02:37:09;;;;;;;40.07;13.07;;;;;;;;;;5003254;28;20474;-77
2022/03/06 02:39:37;;;;;;;37.33;13.60;;;;;;;;;;5004744;28;21023;-77
2022/03/06 02:42:05;;;;;;;41.70;13.27;;;;;;;;;;5007321;28;20467;-77
2022/03/06 02:44:32;;;;;;;36.07;12.20;;;;;;;;;;5006194;28;20587;-77
2022/03/06 02:46:59;;;;;;;37.73;12.97;;;;;;;;;;5004790;28;21042;-77
2022/03/06 02:49:27;;;;;;;43.47;12.57;;;;;;;;;;5004918;28;20507;-77
2022/03/06 02:51:54;;;;;;;35.00;11.87;;;;;;;;;;5002015;28;20497;-76
2022/03/06 02:54:21;;;;;;;34.37;13.10;;;;;;;;;;5002392;28;20837;-77
2022/03/06 02:56:51;;;;;;;34.80;12.33;;;;;;;;;;4996444;28;20467;-76
2022/03/06 02:59:18;;;;;;;35.03;12.60;;;;;;;;;;5003129;28;20545;-77
2022/03/06 03:01:45;;;;;;;38.23;12.87;;;;;;;;;;5000353;28;20448;-78
2022/03/06 03:04:13;;;;;;;37.43;12.97;;;;;;;;;;5005545;28;20491;-76
2022/03/06 03:06:40;;;;;;;38.40;13.27;;;;;;;;;;5002524;28;20544;-78
2022/03/06 03:09:09;;;;;;;40.63;12.80;;;;;;;;;;5004213;28;20885;-78
2022/03/06 03:11:36;;;;;;;37.07;12.23;;;;;;;;;;5005302;28;20468;-78
2022/03/06 03:14:05;;;;;;;41.03;12.63;;;;;;;;;;5005515;28;20494;-77
2022/03/06 03:16:33;;;;;;;36.50;13.00;;;;;;;;;;5004528;28;20463;-78
2022/03/06 03:19:00;;;;;;;33.13;11.40;;;;;;;;;;5001622;28;20478;-78
2022/03/06 03:21:27;;;;;;;35.33;11.73;;;;;;;;;;5001813;28;20547;-77
2022/03/06 03:23:54;;;;;;;38.77;11.90;;;;;;;;;;5002909;28;20491;-77
2022/03/06 03:26:21;;;;;;;29.13;11.00;;;;;;;;;;4996449;28;20526;-77
2022/03/06 03:28:48;;;;;;;38.20;11.73;;;;;;;;;;4999928;28;20455;-77
2022/03/06 03:31:17;;;;;;;36.73;11.80;;;;;;;;;;5001904;28;20562;-77
2022/03/06 03:33:46;;;;;;;32.57;11.83;;;;;;;;;;4996323;28;20488;-77
2022/03/06 03:36:14;;;;;;;37.63;12.77;;;;;;;;;;4999367;28;20521;-77
2022/03/06 03:38:41;;;;;;;36.60;11.20;;;;;;;;;;4999314;28;21012;-78
2022/03/06 03:41:09;;;;;;;30.60;11.40;;;;;;;;;;4998004;28;20571;-77
2022/03/06 03:43:36;;;;;;;30.77;11.07;;;;;;;;;;4997948;28;20590;-78
2022/03/06 03:46:05;;;;;;;34.37;11.50;;;;;;;;;;5003520;28;20936;-77
2022/03/06 03:48:34;;;;;;;32.13;11.70;;;;;;;;;;5004097;28;20498;-77
2022/03/06 03:51:01;;;;;;;29.73;10.87;;;;;;;;;;5007174;28;20486;-77
2022/03/06 03:53:28;;;;;;;34.87;11.60;;;;;;;;;;5004152;28;20545;-77
2022/03/06 03:55:55;;;;;;;30.17;10.33;;;;;;;;;;5005227;28;20477;-78
2022/03/06 03:58:23;;;;;;;33.97;11.73;;;;;;;;;;5005312;28;20466;-79
2022/03/06 04:00:51;;;;;;;32.27;11.20;;;;;;;;;;5001371;28;20470;-77
2022/03/06 04:03:18;;;;;;;29.30;10.33;;;;;;;;;;5005365;28;20490;-78
2022/03/06 04:05:47;;;;;;;36.43;11.17;;;;;;;;;;4999091;28;20467;-78
2022/03/06 04:08:14;;;;;;;34.50;11.60;;;;;;;;;;5003881;28;20538;-78
2022/03/06 04:10:41;;;;;;;42.37;11.77;;;;;;;;;;5005658;28;20471;-77
2022/03/06 04:13:08;;;;;;;33.23;11.13;;;;;;;;;;4998919;28;20566;-77
2022/03/06 04:15:36;;;;;;;33.77;11.10;;;;;;;;;;5001235;28;20458;-79
2022/03/06 04:18:03;;;;;;;32.07;11.13;;;;;;;;;;4999770;28;20456;-79
2022/03/06 04:20:31;;;;;;;35.27;11.57;;;;;;;;;;4999628;28;20955;-77
2022/03/06 04:22:59;;;;;;;35.17;11.03;;;;;;;;;;5003971;28;20479;-78
2022/03/06 04:25:27;;;;;;;32.30;10.30;;;;;;;;;;5001850;28;20742;-77
2022/03/06 04:27:54;;;;;;;40.10;12.73;;;;;;;;;;5001776;28;20481;-78
2022/03/06 04:30:22;;;;;;;30.57;10.30;;;;;;;;;;4999510;28;20546;-78
2022/03/06 04:32:49;;;;;;;32.47;12.53;;;;;;;;;;4998912;28;20588;-77
2022/03/06 04:35:17;;;;;;;28.97;11.17;;;;;;;;;;5000633;28;20466;-78
2022/03/06 04:37:44;;;;;;;39.20;12.47;;;;;;;;;;5001152;28;20467;-78
2022/03/06 04:40:13;;;;;;;31.20;9.63;;;;;;;;;;5001404;28;20473;-78
2022/03/06 04:42:41;;;;;;;34.27;11.93;;;;;;;;;;5001075;28;20483;-78
2022/03/06 04:45:09;;;;;;;31.70;11.70;;;;;;;;;;4999545;28;20495;-78
2022/03/06 04:47:36;;;;;;;33.20;10.37;;;;;;;;;;4998217;28;20467;-79
2022/03/06 04:50:03;;;;;;;33.27;11.00;;;;;;;;;;5001317;28;20463;-78
2022/03/06 04:52:30;;;;;;;31.40;11.23;;;;;;;;;;5003080;28;20560;-78
2022/03/06 04:54:57;;;;;;;32.67;10.87;;;;;;;;;;5000226;28;20861;-79
2022/03/06 04:57:26;;;;;;;32.43;10.67;;;;;;;;;;5000610;28;20452;-77
2022/03/06 04:59:53;;;;;;;36.17;11.63;;;;;;;;;;4998192;28;20949;-78
2022/03/06 05:02:20;;;;;;;30.50;10.80;;;;;;;;;;5001082;28;20486;-77
2022/03/06 05:04:47;;;;;;;29.73;10.57;;;;;;;;;;5002277;28;20494;-77
2022/03/06 05:07:15;;;;;;;34.00;11.83;;;;;;;;;;5001025;28;20863;-78
2022/03/06 05:09:42;;;;;;;31.00;10.77;;;;;;;;;;4999858;28;20551;-77
2022/03/06 05:12:09;;;;;;;30.63;10.70;;;;;;;;;;5003592;28;20497;-77
2022/03/06 05:14:38;;;;;;;32.60;10.97;;;;;;;;;;4999664;28;20882;-77
2022/03/06 05:17:05;;;;;;;31.70;12.33;;;;;;;;;;5001760;28;20502;-78
2022/03/06 05:19:32;;;;;;;30.03;10.37;;;;;;;;;;5001300;28;20456;-78
2022/03/06 05:22:00;;;;;;;31.30;10.70;;;;;;;;;;4996768;28;20467;-78
2022/03/06 05:24:28;;;;;;;27.70;10.83;;;;;;;;;;4999352;28;20517;-78
2022/03/06 05:26:55;;;;;;;29.73;10.90;;;;;;;;;;5004359;28;20491;-77
2022/03/06 05:29:22;;;;;;;31.97;10.40;;;;;;;;;;4999746;28;20949;-77
2022/03/06 05:31:51;;;;;;;29.30;11.17;;;;;;;;;;5000729;28;20926;-76
2022/03/06 05:34:18;;;;;;;30.60;10.43;;;;;;;;;;5001927;28;20468;-77
2022/03/06 05:36:45;;;;;;;29.17;10.37;;;;;;;;;;5003199;28;20539;-76
2022/03/06 05:39:12;;;;;;;26.37;10.17;;;;;;;;;;5003725;28;20471;-77
2022/03/06 05:41:39;;;;;;;28.70;10.33;;;;;;;;;;5009251;28;20531;-77
2022/03/06 05:44:07;;;;;;;25.80;9.70;;;;;;;;;;5006776;28;20566;-78
2022/03/06 05:46:34;;;;;;;26.63;9.93;;;;;;;;;;4999829;28;20468;-76
2022/03/06 05:49:02;;;;;;;31.60;11.10;;;;;;;;;;4997671;28;20451;-76
2022/03/06 05:51:30;;;;;;;28.27;11.40;;;;;;;;;;4999328;28;20919;-76
2022/03/06 05:53:58;;;;;;;26.23;11.53;;;;;;;;;;5003679;28;20472;-77
2022/03/06 05:56:25;;;;;;;32.53;10.90;;;;;;;;;;4999328;28;20471;-76
2022/03/06 05:58:53;;;;;;;31.63;10.57;;;;;;;;;;5001191;28;20546;-76
2022/03/06 06:01:20;;;;;;;28.73;11.03;;;;;;;;;;5002358;28;20538;-76
2022/03/06 06:03:47;;;;;;;30.37;10.83;;;;;;;;;;4998519;28;20491;-76
2022/03/06 06:06:16;;;;;;;31.53;10.80;;;;;;;;;;4999996;28;20455;-76
2022/03/06 06:08:43;;;;;;;29.53;10.47;;;;;;;;;;4999680;28;20448;-76
2022/03/06 06:11:10;;;;;;;30.70;10.47;;;;;;;;;;5002151;28;20550;-76
2022/03/06 06:13:37;;;;;;;29.80;12.60;;;;;;;;;;5001559;28;20491;-76
2022/03/06 06:16:05;;;;;;;33.83;11.23;;;;;;;;;;5000813;28;20464;-77
2022/03/06 06:18:32;;;;;;;30.23;11.33;;;;;;;;;;4997870;28;20482;-76
2022/03/06 06:20:59;;;;;;;26.57;9.87;;;;;;;;;;5000801;28;20469;-76
2022/03/06 06:23:28;;;;;;;25.37;9.77;;;;;;;;;;5000214;28;20909;-76
2022/03/06 06:25:55;;;;;;;32.67;10.60;;;;;;;;;;4999173;28;20848;-76
2022/03/06 06:28:22;;;;;;;27.23;10.17;;;;;;;;;;5001289;28;20559;-77
2022/03/06 06:30:49;;;;;;;26.37;9.30;;;;;;;;;;5002133;28;20467;-76
2022/03/06 06:33:16;;;;;;;26.67;10.20;;;;;;;;;;4999573;28;20495;-77
2022/03/06 06:35:43;;;;;;;30.03;10.90;;;;;;;;;;4999238;28;20500;-77
2022/03/06 06:38:11;;;;;;;29.80;11.50;;;;;;;;;;5019567;28;20915;-77
2022/03/06 06:40:39;;;;;;;29.17;11.17;;;;;;;;;;5022313;28;20523;-77
2022/03/06 06:43:06;;;;;;;29.13;10.70;;;;;;;;;;5022049;28;20480;-76
2022/03/06 06:45:33;;;;;;;29.10;10.63;;;;;;;;;;5020851;28;20486;-77
2022/03/06 06:48:01;;;;;;;30.40;10.70;;;;;;;;;;5019815;28;20520;-77
2022/03/06 06:50:28;;;;;;;33.90;11.50;;;;;;;;;;5023783;28;20490;-76
2022/03/06 06:52:55;;;;;;;25.40;10.13;;;;;;;;;;5018250;28;20467;-78
2022/03/06 06:55:22;;;;;;;29.43;11.40;;;;;;;;;;5001626;28;20450;-78
2022/03/06 06:57:51;;;;;;;28.50;11.20;;;;;;;;;;4997430;28;20996;-79
2022/03/06 07:00:18;;;;;;;29.37;12.10;;;;;;;;;;5001394;28;20480;-78
2022/03/06 07:02:46;;;;;;;30.10;10.57;;;;;;;;;;4997999;28;20486;-78
2022/03/06 07:05:13;;;;;;;29.83;11.73;;;;;;;;;;4997715;28;21098;-79
2022/03/06 07:07:40;;;;;;;33.43;12.03;;;;;;;;;;5001256;28;20467;-77
2022/03/06 07:10:08;;;;;;;31.23;12.60;;;;;;;;;;4997051;28;20973;-77
2022/03/06 07:12:42;;;;;;;33.07;12.33;;;;;;;;;;4996824;28;20534;-77
2022/03/06 07:15:11;;;;;;;35.90;13.10;;;;;;;;;;5000491;28;20474;-75
2022/03/06 07:17:38;;;;;;;33.80;13.27;;;;;;;;;;5001639;28;20989;-77
2022/03/06 07:20:06;;;;;;;30.83;12.73;;;;;;;;;;4999742;28;20467;-76
2022/03/06 07:22:33;;;;;;;32.33;12.73;;;;;;;;;;5001602;28;20503;-76
2022/03/06 07:25:00;;;;;;;29.60;11.40;;;;;;;;;;5004167;28;20572;-76
2022/03/06 07:27:28;;;;;;;37.17;12.80;;;;;;;;;;4998168;28;20552;-75
2022/03/06 07:29:55;;;;;;;24.57;11.40;;;;;;;;;;5002329;28;20502;-78
2022/03/06 07:32:23;;;;;;;30.00;11.53;;;;;;;;;;5002682;28;20565;-75
2022/03/06 07:34:50;;;;;;;24.70;10.90;;;;;;;;;;5003945;28;20457;-77
2022/03/06 07:37:18;;;;;;;26.80;11.33;;;;;;;;;;4999345;28;20474;-76
2022/03/06 07:39:45;;;;;;;28.73;10.77;;;;;;;;;;4999845;28;20212;-77
2022/03/06 07:42:12;;;;;;;24.70;10.87;;;;;;;;;;4998718;28;20844;-75
2022/03/06 07:44:39;;;;;;;23.07;10.03;;;;;;;;;;4997161;28;21603;-76
2022/03/06 07:47:07;;;;;;;27.83;12.10;;;;;;;;;;4996764;28;20207;-76
2022/03/06 07:49:35;;;;;;;27.63;11.17;;;;;;;;;;4996565;28;20452;-76
2022/03/06 07:52:02;;;;;;;29.10;12.13;;;;;;;;;;4995810;28;20219;-76
2022/03/06 07:54:29;;;;;;;24.37;10.90;;;;;;;;;;4998781;28;20200;-76
2022/03/06 07:56:57;;;;;;;27.60;11.57;;;;;;;;;;4996122;28;20475;-76
2022/03/06 07:59:25;;;;;;;30.30;12.00;;;;;;;;;;4998754;28;20204;-76
2022/03/06 08:01:56;;;;;;;31.30;12.77;;;;;;;;;;4994076;28;20269;-79
2022/03/06 08:04:23;;;;;;;25.10;12.07;;;;;;;;;;5004304;28;20216;-76
2022/03/06 08:06:52;;;;;;;28.57;12.33;;;;;;;;;;5001052;28;20216;-77
2022/03/06 08:09:19;;;;;;;25.03;11.43;;;;;;;;;;5002409;28;20220;-77
2022/03/06 08:11:46;;;;;;;25.37;11.70;;;;;;;;;;5006297;28;20568;-76
2022/03/06 08:14:13;;;;;;;31.60;13.13;;;;;;;;;;4999353;28;20806;-76
2022/03/06 08:16:41;;;;;;;25.17;11.93;;;;;;;;;;5002941;28;20296;-74
2022/03/06 08:19:08;;;;;;;26.77;12.03;;;;;;;;;;4999990;28;20213;-77
2022/03/06 08:21:35;;;;;;;27.73;11.53;;;;;;;;;;5001505;28;20208;-77
2022/03/06 08:24:04;;;;;;;24.03;11.07;;;;;;;;;;5001581;28;20264;-76
2022/03/06 08:26:31;;;;;;;25.50;12.40;;;;;;;;;;5005333;28;20229;-78
2022/03/06 08:28:58;;;;;;;30.27;12.60;;;;;;;;;;5008188;28;20601;-77
2022/03/06 08:31:25;;;;;;;23.77;11.30;;;;;;;;;;5012073;28;20208;-78
2022/03/06 08:33:53;;;;;;;24.57;11.57;;;;;;;;;;5004627;28;20253;-76
2022/03/06 08:36:20;;;;;;;22.57;11.30;;;;;;;;;;5010384;28;20201;-78
2022/03/06 08:38:47;;;;;;;25.50;11.63;;;;;;;;;;5012366;28;20272;-77
2022/03/06 08:41:16;;;;;;;21.20;11.00;;;;;;;;;;5003737;28;20201;-77
2022/03/06 08:43:43;;;;;;;22.80;10.87;;;;;;;;;;5009919;28;20302;-77
2022/03/06 08:46:11;;;;;;;22.83;10.67;;;;;;;;;;5001474;28;20298;-77
2022/03/06 08:48:38;;;;;;;24.57;11.03;;;;;;;;;;5006491;28;20287;-77
2022/03/06 08:51:05;;;;;;;25.13;11.60;;;;;;;;;;5012867;28;20702;-78
2022/03/06 08:53:33;;;;;;;28.10;11.67;;;;;;;;;;5006069;28;20225;-80
2022/03/06 08:56:00;;;;;;;22.90;11.13;;;;;;;;;;5011600;28;20291;-79
2022/03/06 08:58:29;;;;;;;25.63;11.83;;;;;;;;;;5009027;28;20208;-77
2022/03/06 09:03:38;;;;;;;23.67;11.23;;;;;;;;;;5008424;28;20232;-78
2022/03/06 09:06:05;;;;;;;23.00;11.63;;;;;;;;;;5006299;28;20230;-79
2022/03/06 09:08:32;;;;;;;27.87;11.77;;;;;;;;;;5016037;28;20200;-78
2022/03/06 09:11:00;;;;;;;23.93;12.13;;;;;;;;;;5005957;28;20235;-77
2022/03/06 09:13:28;;;;;;;22.63;11.60;;;;;;;;;;5013097;28;20224;-78
2022/03/06 09:15:55;;;;;;;26.43;11.70;;;;;;;;;;5013995;28;20299;-77
2022/03/06 09:18:22;;;;;;;23.40;10.97;;;;;;;;;;5012219;28;20767;-78
2022/03/06 09:20:50;;;;;;;27.17;12.87;;;;;;;;;;5005644;28;20232;-78
2022/03/06 09:23:18;;;;;;;39.90;18.37;;;;;;;;;;5005272;28;20224;-79
2022/03/06 09:25:45;;;;;;;25.40;11.73;;;;;;;;;;5007051;28;20326;-78
2022/03/06 09:28:12;;;;;;;47.90;24.33;;;;;;;;;;5007559;28;20639;-79
2022/03/06 09:30:42;;;;;;;26.67;12.53;;;;;;;;;;5004616;28;20231;-79
2022/03/06 09:33:10;;;;;;;21.50;10.70;;;;;;;;;;5001260;28;20232;-77
2022/03/06 09:35:37;;;;;;;25.90;11.27;;;;;;;;;;5003141;28;20702;-77
2022/03/06 09:38:04;;;;;;;25.13;11.23;;;;;;;;;;5001356;28;20251;-78
2022/03/06 09:40:31;;;;;;;19.70;10.40;;;;;;;;;;5001506;28;20287;-78
2022/03/06 09:42:58;;;;;;;19.87;10.20;;;;;;;;;;5001843;28;20614;-77
2022/03/06 09:45:26;;;;;;;19.80;9.60;;;;;;;;;;5010101;28;20224;-78
2022/03/06 09:47:58;;;;;;;20.23;10.47;;;;;;;;;;5007599;28;20201;-77
2022/03/06 09:50:25;;;;;;;22.23;9.23;;;;;;;;;;5013850;28;20219;-77
2022/03/06 09:55:56;;;;;;;19.27;8.27;;;;;;;;;;5009245;28;20311;-77
2022/03/06 09:58:23;;;;;;;14.63;7.70;;;;;;;;;;5007726;28;20208;-76
2022/03/06 10:00:50;;;;;;;16.50;7.70;;;;;;;;;;5008685;28;20205;-77
2022/03/06 10:03:20;;;;;;;14.60;7.43;;;;;;;;;;5009332;28;20729;-78
2022/03/06 10:05:47;;;;;;;17.13;8.40;;;;;;;;;;5005134;28;20220;-77
2022/03/06 10:08:18;;;;;;;11.93;6.93;;;;;;;;;;5004367;28;20662;-77
2022/03/06 10:10:45;;;;;;;13.40;6.70;;;;;;;;;;5015139;28;20212;-79
2022/03/06 10:13:23;;;;;;;12.20;6.57;;;;;;;;;;5004245;28;20312;-78
2022/03/06 10:16:01;;;;;;;12.47;6.60;;;;;;;;;;5011882;28;20287;-78
2022/03/06 10:18:32;;;;;;;12.73;7.20;;;;;;;;;;5008186;28;20236;-77
2022/03/06 10:21:27;;;;;;;13.77;6.13;;;;;;;;;;5009065;28;20743;-77
2022/03/06 10:23:56;;;;;;;17.27;7.80;;;;;;;;;;5001670;28;20225;-77
2022/03/06 10:26:24;;;;;;;12.20;6.70;;;;;;;;;;4997446;28;20229;-77
2022/03/06 10:28:53;;;;;;;11.87;6.83;;;;;;;;;;5006971;28;20247;-77
2022/03/06 10:31:21;;;;;;;12.27;6.37;;;;;;;;;;5005510;28;20213;-76
2022/03/06 10:33:57;;;;;;;12.30;6.43;;;;;;;;;;5029209;22;20374;-77
2022/03/06 10:36:30;;;;;;;11.50;6.23;;;;;;;;;;4998798;28;20666;-77
2022/03/06 10:39:04;;;;;;;13.77;7.07;;;;;;;;;;5009831;28;20211;-79
2022/03/06 10:41:35;;;;;;;11.97;6.27;;;;;;;;;;5010466;28;20207;-78
2022/03/06 10:44:03;;;;;;;15.73;7.30;;;;;;;;;;5012379;28;20667;-75
2022/03/06 10:46:33;;;;;;;12.63;6.30;;;;;;;;;;5012184;28;20620;-77
2022/03/06 10:49:07;;;;;;;14.53;7.53;;;;;;;;;;5011850;28;20204;-79
2022/03/06 10:51:38;;;;;;;11.07;6.77;;;;;;;;;;5008773;28;20301;-78
2022/03/06 10:54:05;;;;;;;11.23;6.57;;;;;;;;;;5007085;28;20231;-77
2022/03/06 10:56:32;;;;;;;18.47;7.17;;;;;;;;;;5005543;28;20330;-78
2022/03/06 10:59:00;;;;;;;11.50;6.47;;;;;;;;;;5011395;28;20251;-78
2022/03/06 11:01:28;;;;;;;14.80;6.70;;;;;;;;;;5007991;28;20291;-77
2022/03/06 11:03:55;;;;;;;13.53;7.00;;;;;;;;;;5006720;28;20284;-77
2022/03/06 11:06:24;;;;;;;11.33;6.43;;;;;;;;;;4994740;28;20213;-78
2022/03/06 11:08:51;;;;;;;12.70;6.73;;;;;;;;;;4998840;28;20215;-76
2022/03/06 11:11:22;;;;;;;14.23;7.80;;;;;;;;;;5004008;28;20201;-76
2022/03/06 11:13:49;;;;;;;14.30;7.50;;;;;;;;;;4998127;28;20232;-77
2022/03/06 11:16:17;;;;;;;14.57;7.90;;;;;;;;;;4996588;28;20203;-77
2022/03/06 11:18:45;;;;;;;13.80;7.10;;;;;;;;;;4995560;28;20292;-77
2022/03/06 11:21:15;;;;;;;15.00;7.67;;;;;;;;;;5008493;28;20259;-76
2022/03/06 11:23:46;;;;;;;15.17;7.20;;;;;;;;;;4995987;28;20252;-77
2022/03/06 11:26:22;;;;;;;13.37;7.30;;;;;;;;;;5005334;28;20259;-78
2022/03/06 11:28:58;;;;;;;15.73;7.60;;;;;;;;;;4991601;28;20985;-78
2022/03/06 11:31:25;;;;;;;14.23;7.50;;;;;;;;;;4997916;28;20207;-79
2022/03/06 11:33:56;;;;;;;14.10;7.63;;;;;;;;;;4993677;28;20259;-78
2022/03/06 11:36:25;;;;;;;18.40;8.37;;;;;;;;;;4993678;28;20201;-78
2022/03/06 11:38:54;;;;;;;15.80;8.30;;;;;;;;;;4997341;28;20361;-77
2022/03/06 11:41:22;;;;;;;16.13;8.50;;;;;;;;;;4994626;28;20208;-79
2022/03/06 11:43:50;;;;;;;15.73;8.43;;;;;;;;;;4998031;28;20256;-79
2022/03/06 11:46:18;;;;;;;19.07;8.63;;;;;;;;;;4995972;28;20247;-79
2022/03/06 11:49:06;;;;;;;14.40;8.00;;;;;;;;;;4999010;28;20262;-78
2022/03/06 11:51:34;;;;;;;17.57;9.00;;;;;;;;;;5000253;28;20196;-79
2022/03/06 11:54:06;;;;;;;14.47;7.73;;;;;;;;;;5000598;28;20690;-79
2022/03/06 11:57:00;;;;;;;15.23;8.37;;;;;;;;;;4997873;28;20220;-79
2022/03/06 11:59:46;;;;;;;18.70;8.17;;;;;;;;;;4993045;28;20300;-78
2022/03/06 12:02:23;;;;;;;16.63;8.60;;;;;;;;;;4993097;28;20262;-78
2022/03/06 12:04:57;;;;;;;16.90;8.30;;;;;;;;;;4998057;28;20192;-78
2022/03/06 12:07:25;;;;;;;14.80;8.33;;;;;;;;;;5001161;28;20313;-79
2022/03/06 12:09:55;;;;;;;16.67;8.90;;;;;;;;;;5003711;28;20236;-78
2022/03/06 12:12:25;;;;;;;15.10;8.07;;;;;;;;;;5000130;28;20229;-77
2022/03/06 12:14:53;;;;;;;15.33;7.97;;;;;;;;;;5002216;28;20220;-78
2022/03/06 12:17:34;;;;;;;17.10;8.83;;;;;;;;;;5008546;28;20201;-78
2022/03/06 12:20:30;;;;;;;17.33;9.17;;;;;;;;;;5002483;28;20239;-77
2022/03/06 12:23:00;;;;;;;17.63;8.90;;;;;;;;;;5002499;28;20239;-78
2022/03/06 12:25:33;;;;;;;17.80;9.00;;;;;;;;;;5005781;28;20656;-77
2022/03/06 12:28:19;;;;;;;15.87;9.20;;;;;;;;;;4999665;28;20204;-77
2022/03/06 12:30:47;;;;;;;17.13;9.27;;;;;;;;;;5003546;28;20677;-78
2022/03/06 12:33:27;;;;;;;16.27;8.37;;;;;;;;;;5000177;28;20255;-77
2022/03/06 12:36:08;;;;;;;17.00;9.37;;;;;;;;;;4996810;28;20663;-77
2022/03/06 12:38:36;;;;;;;18.30;8.43;;;;;;;;;;5000988;28;20239;-77
2022/03/06 12:41:05;;;;;;;18.57;9.00;;;;;;;;;;5000044;28;20250;-77
2022/03/06 12:43:33;;;;;;;17.17;9.17;;;;;;;;;;4998451;28;20236;-77
2022/03/06 12:46:00;;;;;;;17.83;9.67;;;;;;;;;;5005435;28;20580;-77
2022/03/06 12:48:27;;;;;;;18.87;9.23;;;;;;;;;;5002535;28;20268;-78
2022/03/06 12:50:55;;;;;;;18.57;9.80;;;;;;;;;;5008248;28;20212;-78
2022/03/06 12:53:22;;;;;;;19.30;9.70;;;;;;;;;;5005388;28;20221;-78
2022/03/06 12:55:56;;;;;;;19.50;10.30;;;;;;;;;;5000944;28;20232;-78
2022/03/06 12:58:37;;;;;;;19.83;10.57;;;;;;;;;;5000864;28;20559;-78
2022/03/06 13:01:07;;;;;;;21.50;10.83;;;;;;;;;;5003657;28;20319;-78
2022/03/06 13:03:34;;;;;;;18.97;10.03;;;;;;;;;;4997851;28;20315;-78
2022/03/06 13:06:12;;;;;;;32.20;10.37;;;;;;;;;;5001449;28;20288;-78
2022/03/06 13:08:43;;;;;;;21.43;10.70;;;;;;;;;;4996557;28;20845;-77
2022/03/06 13:11:12;;;;;;;19.57;10.50;;;;;;;;;;5001186;28;20273;-78
2022/03/06 13:13:41;;;;;;;19.30;10.23;;;;;;;;;;4999329;28;20580;-77
2022/03/06 13:16:09;;;;;;;23.93;11.50;;;;;;;;;;5001393;28;20235;-80
2022/03/06 13:18:37;;;;;;;21.07;11.20;;;;;;;;;;5000911;28;20293;-78
2022/03/06 13:21:16;;;;;;;21.93;11.00;;;;;;;;;;5000625;28;20208;-78
2022/03/06 13:23:43;;;;;;;19.90;10.63;;;;;;;;;;5004822;28;20236;-77
2022/03/06 13:26:10;;;;;;;24.67;11.50;;;;;;;;;;5004607;28;20211;-78
2022/03/06 13:28:37;;;;;;;21.13;11.33;;;;;;;;;;5000723;28;20302;-77
2022/03/06 13:31:06;;;;;;;20.63;11.17;;;;;;;;;;4997935;28;20298;-78
2022/03/06 13:33:34;;;;;;;21.60;11.20;;;;;;;;;;4996098;28;20224;-77
2022/03/06 13:36:01;;;;;;;21.57;11.67;;;;;;;;;;5010471;28;20213;-78
2022/03/06 13:38:30;;;;;;;25.83;10.47;;;;;;;;;;5010975;28;20247;-77
2022/03/06 13:40:59;;;;;;;22.40;11.67;;;;;;;;;;5004501;28;20209;-78
2022/03/06 13:43:33;;;;;;;20.43;10.33;;;;;;;;;;5009749;28;20233;-79
2022/03/06 13:46:00;;;;;;;22.53;11.43;;;;;;;;;;4998730;28;20228;-77
2022/03/06 13:48:31;;;;;;;22.63;11.47;;;;;;;;;;4998317;28;20239;-78
2022/03/06 13:50:58;;;;;;;21.20;11.10;;;;;;;;;;5001545;28;20208;-79
2022/03/06 13:53:26;;;;;;;23.30;11.33;;;;;;;;;;4997401;28;20233;-78
2022/03/06 13:55:54;;;;;;;24.20;10.63;;;;;;;;;;5000178;28;20215;-78
2022/03/06 13:58:22;;;;;;;24.57;10.93;;;;;;;;;;5003305;28;20232;-78
2022/03/06 14:00:50;;;;;;;17.93;10.33;;;;;;;;;;5003775;28;20287;-77
2022/03/06 14:03:18;;;;;;;19.20;10.00;;;;;;;;;;5001036;28;20710;-78
2022/03/06 14:05:49;;;;;;;20.50;10.57;;;;;;;;;;4999452;28;20217;-78
2022/03/06 14:08:17;;;;;;;20.60;11.30;;;;;;;;;;4998402;28;20228;-77
2022/03/06 14:10:48;;;;;;;19.70;10.00;;;;;;;;;;5001805;28;20655;-77
2022/03/06 14:13:22;;;;;;;18.93;10.10;;;;;;;;;;5002951;28;20232;-76
2022/03/06 14:15:49;;;;;;;18.97;10.10;;;;;;;;;;4994565;28;20236;-77
2022/03/06 14:18:30;;;;;;;19.00;9.40;;;;;;;;;;4994980;28;20339;-76
2022/03/06 14:20:59;;;;;;;18.30;8.87;;;;;;;;;;5006398;28;20207;-77
2022/03/06 14:23:27;;;;;;;18.30;9.90;;;;;;;;;;4998141;28;20229;-77
2022/03/06 14:25:54;;;;;;;16.37;9.20;;;;;;;;;;4993895;28;20201;-77
2022/03/06 14:28:21;;;;;;;20.37;9.77;;;;;;;;;;4994202;28;20236;-77
2022/03/06 14:30:49;;;;;;;17.47;9.37;;;;;;;;;;4994918;28;20205;-77
2022/03/06 14:33:16;;;;;;;17.40;8.80;;;;;;;;;;4995871;28;20233;-77
2022/03/06 14:35:43;;;;;;;14.37;8.53;;;;;;;;;;5002029;28;20221;-78